Aérodrome :







RETROUVEZ-NOUS SUR...

 
LOGIN :

S'inscrire | Disclaimer

   EN    FR    IT 

 









Légende :    VFR   VFR Marginal   IFR   IFR Intensif   IFR Très Intensif
Visi : 
Plafond : 
>= 8 km
>= 3000ft
5 à 8 km
1000 à 3000 ft
1500m à 5 km
500 à 1000 ft
800 à 1500m
200 à 500 ft
< 800m
< 200 ft
Symboles :   Orages  Brouillard  Fortes neiges  Fortes précipitations  Vent > 20 kt






- Altitude de l'aérodrome : 38 ft
- Code IATA : YMH


CYMH - Mary's Harbour

METARs EXPIRÉS :
  • 132100Z AUTO 35007KT 5SM -RA BR SCT009 BKN013 OVC022 09/09 A2981 RMK TS/LTNG TEMPO UNAVBL SLP097
  • 132055Z AUTO 36009KT 4SM -RA BR SCT009 BKN015 OVC022 09/09 A2981 RMK SLP095
  • 132032Z AUTO 36007G16KT 330V040 5SM -RA BR BKN012 OVC021 09/09 A2981 RMK TS/LTNG TEMPO UNAVBL SLP095

TAF TAF CYMH
Valide du 13 à 20h jusqu'au 14 à 03h UTC


131938Z 1320/1403 35012KT P6SM BKN012
TEMPO 1320/1324 2SM -RA BR SCT004 OVC006
BECMG 1320/1322 35012G22KT
FM140000 36015G25KT 6SM BR OVC010
TEMPO 1400/1403 2SM -RA BR OVC006
PROB30 1400/1403 1SM -RA BR OVC003 RMK FCST BASED ON AUTO OBS. NXT FCST WILL BE ISSUED AT 140845Z
FIR CZQX / Amérique du Nord



MET'MAP, la Météo Aéronautique d'un coup d'oeil ! - Copyright ORBIFLY Décembre 2007 - Disclaimer

ORBIFLY MET'MAP TEAM :

Programmation & Développement : Alexandra Zaïnal
Sur une idée originale de : Baudouin d'Aumeries
Assistance à la programmation : Marc-Olivier Méhu
Soutien technique & logistique : Manuel Goepfert

Contact : metmap@orbifly.com




SOURCES & CREDITS :

   NOAA